KELZ/ELZ METAR and TAF weather

Enter ICAO airport designator
Station Type Date Time Source
KELZ METAR 2022/05/26 04:56 UTC NOAA

KELZ 260456Z AUTO 19015G22KT 10SM CLR 16/09 A3019 RMK AO2 PK WND 20026/0439 SLP217 T01610089 402220117


Station Type Date Time Source
KELZ Decoded METAR 2022/05/26 04:56 UTC NOAA

WELLSVILLE MUNICIPAL AIRPORT, NY, United States (KELZ) 42-06N 077-60W 646M
May 26, 2022 - 12:56 AM EDT / 2022.05.26 0456 UTC
Wind: from the S (190 degrees) at 17 MPH (15 KT) gusting to 25 MPH (22 KT):0
Visibility: 10 mile(s):0
Sky conditions: clear
Temperature: 61.0 F (16.1 C)
Dew Point: 48.0 F (8.9 C)
Relative Humidity: 62%
Pressure (altimeter): 30.19 in. Hg (1022 hPa)
ob: KELZ 260456Z AUTO 19015G22KT 10SM CLR 16/09 A3019 RMK AO2 PK WND 20026/0439 SLP217 T01610089 402220117
cycle: 5

Station Type Date Time Source
KELZ TAF UTC NOAA

Error!

Example: see airport list